createdAt,value
2022-09-03T00:00:07.312Z,98830.53
2022-09-03T00:02:39.290Z,98824.28
2022-09-03T00:05:10.044Z,98823.50
2022-09-03T00:07:43.557Z,98822.25
2022-09-03T00:10:14.653Z,98822.72
2022-09-03T00:12:45.536Z,98820.66
2022-09-03T00:15:15.066Z,98822.81
2022-09-03T00:17:45.605Z,98824.13
2022-09-03T00:20:16.338Z,98816.44
2022-09-03T00:22:47.989Z,98829.75
2022-09-03T00:25:18.622Z,98823.91
2022-09-03T00:27:50.420Z,98832.41
2022-09-03T00:30:19.045Z,98838.22
2022-09-03T00:32:48.223Z,98843.19
2022-09-03T00:35:17.956Z,98838.81
2022-09-03T00:37:47.006Z,98838.50
2022-09-03T00:40:18.846Z,98841.78
2022-09-03T00:42:53.471Z,98841.75
2022-09-03T00:45:28.196Z,98846.16
2022-09-03T00:48:04.970Z,98841.50
2022-09-03T00:50:42.338Z,98831.22
2022-09-03T00:53:14.833Z,98845.34
2022-09-03T00:55:47.579Z,98842.22
2022-09-03T00:58:23.968Z,98840.34
2022-09-03T01:00:52.885Z,98835.38
2022-09-03T01:03:26.740Z,98839.41
2022-09-03T01:06:03.453Z,98840.03
2022-09-03T01:08:39.220Z,98838.47
2022-09-03T01:11:15.642Z,98839.09
2022-09-03T01:13:46.752Z,98837.81
2022-09-03T01:16:20.344Z,98834.97
2022-09-03T01:18:53.651Z,98832.38
2022-09-03T01:21:40.247Z,98834.13
2022-09-03T01:24:21.936Z,98842.81
2022-09-03T01:27:03.511Z,98836.72
2022-09-03T01:29:35.637Z,98839.44
2022-09-03T01:32:13.906Z,98837.06
2022-09-03T01:34:46.407Z,98838.06
2022-09-03T01:37:16.986Z,98836.53
2022-09-03T01:39:51.397Z,98837.53
2022-09-03T01:42:24.470Z,98828.91
2022-09-03T01:45:12.148Z,98830.00
2022-09-03T01:47:51.282Z,98826.63
2022-09-03T01:50:27.093Z,98829.00
2022-09-03T01:52:57.367Z,98839.59
2022-09-03T01:55:29.917Z,98839.53
2022-09-03T01:57:59.856Z,98823.06
2022-09-03T02:00:28.899Z,98827.88
2022-09-03T02:03:04.119Z,98833.72
2022-09-03T02:05:31.826Z,98820.84
2022-09-03T02:08:01.467Z,98836.22
2022-09-03T02:10:32.304Z,98832.22
2022-09-03T02:13:03.153Z,98829.03
2022-09-03T02:15:34.612Z,98823.66
2022-09-03T02:18:07.094Z,98826.47
2022-09-03T02:20:34.818Z,98820.16
2022-09-03T02:23:03.552Z,98823.84
2022-09-03T02:25:34.408Z,98821.13
2022-09-03T02:28:02.844Z,98824.91
2022-09-03T02:30:30.490Z,98828.03
2022-09-03T02:32:58.298Z,98825.38
2022-09-03T02:35:27.530Z,98826.25
2022-09-03T02:37:55.160Z,98821.72
2022-09-03T02:40:22.860Z,98822.47
2022-09-03T02:42:51.319Z,98825.09
2022-09-03T02:45:23.493Z,98828.75
2022-09-03T02:47:53.414Z,98822.03
2022-09-03T02:50:21.034Z,98815.34
2022-09-03T02:52:50.063Z,98808.78
2022-09-03T02:55:19.127Z,98809.94
2022-09-03T02:57:47.173Z,98809.63
2022-09-03T03:00:15.874Z,98806.69
2022-09-03T03:02:43.689Z,98812.13
2022-09-03T03:05:17.666Z,98809.41
2022-09-03T03:07:45.313Z,98808.00
2022-09-03T03:10:14.935Z,98804.75
2022-09-03T03:12:42.555Z,98812.34
2022-09-03T03:15:10.811Z,98815.13
2022-09-03T03:17:38.448Z,98810.50
2022-09-03T03:20:06.523Z,98812.63
2022-09-03T03:22:34.250Z,98809.94
2022-09-03T03:25:02.078Z,98809.56
2022-09-03T03:27:31.042Z,98818.50
2022-09-03T03:29:58.702Z,98815.72
2022-09-03T03:32:26.369Z,98820.41
2022-09-03T03:34:54.019Z,98816.94
2022-09-03T03:37:21.707Z,98814.31
2022-09-03T03:39:49.371Z,98815.97
2022-09-03T03:42:17.053Z,98812.38
2022-09-03T03:44:46.092Z,98821.72
2022-09-03T03:47:13.805Z,98818.84
2022-09-03T03:49:41.874Z,98826.34
2022-09-03T03:52:09.761Z,98821.72
2022-09-03T03:54:37.362Z,98825.94
2022-09-03T03:57:05.155Z,98822.22
2022-09-03T03:59:32.814Z,98820.19
2022-09-03T04:02:01.842Z,98826.22
2022-09-03T04:04:29.590Z,98826.25
2022-09-03T04:06:57.230Z,98828.59
2022-09-03T04:09:25.837Z,98831.94
2022-09-03T04:11:53.496Z,98828.16
2022-09-03T04:14:22.187Z,98829.59
2022-09-03T04:16:51.071Z,98823.47
2022-09-03T04:19:20.072Z,98816.03
2022-09-03T04:21:47.712Z,98818.31
2022-09-03T04:24:15.349Z,98817.59
2022-09-03T04:26:43.013Z,98820.19
2022-09-03T04:29:11.349Z,98823.97
2022-09-03T04:31:40.104Z,98820.84
2022-09-03T04:34:07.844Z,98816.94
2022-09-03T04:36:37.783Z,98810.47
2022-09-03T04:39:05.445Z,98809.41
2022-09-03T04:41:33.207Z,98812.19
2022-09-03T04:44:00.867Z,98813.44
2022-09-03T04:46:33.652Z,98807.16
2022-09-03T04:49:01.942Z,98814.38
2022-09-03T04:51:31.463Z,98836.31
2022-09-03T04:54:01.609Z,98833.13
2022-09-03T04:56:30.361Z,98830.50
2022-09-03T04:58:58.615Z,98822.47
2022-09-03T05:01:27.274Z,98830.69
2022-09-03T05:03:56.310Z,98823.19
2022-09-03T05:06:24.703Z,98834.41
2022-09-03T05:08:52.884Z,98826.50
2022-09-03T05:11:23.709Z,98833.72
2022-09-03T05:13:51.944Z,98842.59
2022-09-03T05:16:19.846Z,98835.09
2022-09-03T05:18:48.151Z,98836.03
2022-09-03T05:21:17.012Z,98845.28
2022-09-03T05:23:45.440Z,98841.69
2022-09-03T05:26:14.790Z,98847.50
2022-09-03T05:28:44.521Z,98847.00
2022-09-03T05:31:13.218Z,98844.25
2022-09-03T05:33:42.165Z,98836.75
2022-09-03T05:36:10.569Z,98840.63
2022-09-03T05:38:38.623Z,98843.13
2022-09-03T05:41:06.965Z,98841.28
2022-09-03T05:43:35.461Z,98849.72
2022-09-03T05:46:05.529Z,98859.72
2022-09-03T05:48:34.318Z,98857.50
2022-09-03T05:51:02.188Z,98848.44
2022-09-03T05:53:30.294Z,98846.75
2022-09-03T05:55:58.357Z,98853.22
2022-09-03T05:58:26.929Z,98851.03
2022-09-03T06:00:54.678Z,98856.31
2022-09-03T06:03:23.926Z,98856.31
2022-09-03T06:05:52.693Z,98846.31
2022-09-03T06:08:20.293Z,98850.22
2022-09-03T06:10:47.947Z,98837.16
2022-09-03T06:13:15.736Z,98844.25
2022-09-03T06:15:43.385Z,98850.66
2022-09-03T06:18:11.001Z,98852.06
2022-09-03T06:20:39.988Z,98852.56
2022-09-03T06:23:07.669Z,98854.91
2022-09-03T06:25:35.415Z,98856.19
2022-09-03T06:28:04.160Z,98864.56
2022-09-03T06:30:31.926Z,98847.09
2022-09-03T06:32:59.567Z,98860.66
2022-09-03T06:35:27.224Z,98846.84
2022-09-03T06:37:59.896Z,98841.81
2022-09-03T06:40:27.559Z,98836.59
2022-09-03T06:43:00.895Z,98834.84
2022-09-03T06:45:29.370Z,98833.44
2022-09-03T06:47:57.089Z,98832.94
2022-09-03T06:50:24.950Z,98839.84
2022-09-03T06:52:55.106Z,98832.81
2022-09-03T06:55:24.171Z,98839.16
2022-09-03T06:57:57.039Z,98836.81
2022-09-03T07:00:24.965Z,98844.09
2022-09-03T07:02:59.067Z,98845.00
2022-09-03T07:05:28.669Z,98836.34
2022-09-03T07:07:56.317Z,98834.78
2022-09-03T07:10:26.127Z,98830.28
2022-09-03T07:12:55.928Z,98837.00
2022-09-03T07:15:23.578Z,98838.94
2022-09-03T07:17:51.345Z,98833.16
2022-09-03T07:20:19.081Z,98837.34
2022-09-03T07:22:46.802Z,98849.28
2022-09-03T07:25:14.602Z,98849.06
2022-09-03T07:27:43.619Z,98858.66
2022-09-03T07:30:12.146Z,98854.66
2022-09-03T07:32:40.963Z,98856.41
2022-09-03T07:35:08.999Z,98851.25
2022-09-03T07:37:37.334Z,98852.31
2022-09-03T07:40:05.240Z,98842.88
2022-09-03T07:42:33.094Z,98844.88
2022-09-03T07:45:04.611Z,98837.22
2022-09-03T07:47:34.529Z,98836.03
2022-09-03T07:50:02.205Z,98831.47
2022-09-03T07:52:29.827Z,98843.22
2022-09-03T07:54:57.518Z,98845.06
2022-09-03T07:57:25.349Z,98844.09
2022-09-03T07:59:53.024Z,98844.81
2022-09-03T08:02:22.061Z,98854.38
2022-09-03T08:04:49.707Z,98859.97
2022-09-03T08:07:17.351Z,98856.72
2022-09-03T08:09:45.040Z,98860.66
2022-09-03T08:12:12.693Z,98858.66
2022-09-03T08:14:40.401Z,98859.16
2022-09-03T08:17:08.029Z,98855.41
2022-09-03T08:19:37.056Z,98848.81
2022-09-03T08:22:04.749Z,98859.84
2022-09-03T08:24:34.276Z,98858.47
2022-09-03T08:27:01.964Z,98853.91
2022-09-03T08:29:29.605Z,98854.06
2022-09-03T08:31:59.534Z,98842.03
2022-09-03T08:34:27.469Z,98854.47
2022-09-03T08:36:56.507Z,98847.03
2022-09-03T08:39:24.369Z,98854.25
2022-09-03T08:42:03.700Z,98851.63
2022-09-03T08:44:32.361Z,98840.94
2022-09-03T08:47:01.803Z,98852.47
2022-09-03T08:49:33.242Z,98852.19
2022-09-03T08:52:04.737Z,98847.03
2022-09-03T08:54:33.439Z,98851.97
2022-09-03T08:57:02.190Z,98849.66
2022-09-03T08:59:33.026Z,98833.59
2022-09-03T09:02:07.117Z,98844.47
2022-09-03T09:04:40.488Z,98846.78
2022-09-03T09:07:12.263Z,98831.13
2022-09-03T09:09:48.859Z,98834.53
2022-09-03T09:12:37.590Z,98845.97
2022-09-03T09:15:13.993Z,98842.31
2022-09-03T09:17:57.542Z,98836.09
2022-09-03T09:20:30.183Z,98840.66
2022-09-03T09:23:02.781Z,98825.47
2022-09-03T09:25:32.486Z,98830.28
2022-09-03T09:28:01.558Z,98838.41
2022-09-03T09:30:30.002Z,98827.53
2022-09-03T09:32:57.698Z,98830.63
2022-09-03T09:35:25.329Z,98828.91
2022-09-03T09:37:53.697Z,98825.78
2022-09-03T09:40:27.646Z,98828.19
2022-09-03T09:43:04.272Z,98829.16
2022-09-03T09:45:34.150Z,98835.72
2022-09-03T09:48:02.671Z,98824.31
2022-09-03T09:50:30.467Z,98826.66
2022-09-03T09:53:04.271Z,98819.00
2022-09-03T09:55:33.359Z,98820.06
2022-09-03T09:58:13.947Z,98822.72
2022-09-03T10:00:42.861Z,98821.84
2022-09-03T10:03:13.696Z,98818.69
2022-09-03T10:05:41.781Z,98805.97
2022-09-03T10:08:21.012Z,98806.69
2022-09-03T10:10:50.914Z,98801.78
2022-09-03T10:13:21.402Z,98804.72
2022-09-03T10:15:51.619Z,98810.44
2022-09-03T10:18:28.490Z,98805.88
2022-09-03T10:20:59.534Z,98802.25
2022-09-03T10:23:28.314Z,98797.94
2022-09-03T10:26:04.537Z,98805.22
2022-09-03T10:28:33.286Z,98795.59
2022-09-03T10:31:08.899Z,98803.97
2022-09-03T10:33:40.089Z,98795.81
2022-09-03T10:36:13.410Z,98790.22
2022-09-03T10:38:43.840Z,98787.03
2022-09-03T10:41:24.196Z,98789.53
2022-09-03T10:44:03.957Z,98789.09
2022-09-03T10:46:37.225Z,98799.34
2022-09-03T10:49:19.814Z,98804.81
2022-09-03T10:51:51.339Z,98792.06
2022-09-03T10:54:26.596Z,98791.53
2022-09-03T10:57:03.446Z,98801.63
2022-09-03T10:59:35.506Z,98804.19
2022-09-03T11:02:11.822Z,98797.53
2022-09-03T11:04:44.812Z,98789.53
2022-09-03T11:07:13.966Z,98791.03
2022-09-03T11:09:43.570Z,98785.22
2022-09-03T11:12:14.006Z,98781.50
2022-09-03T11:14:43.763Z,98778.94
2022-09-03T11:17:14.079Z,98767.47
2022-09-03T11:19:48.229Z,98762.34
2022-09-03T11:22:20.694Z,98764.09
2022-09-03T11:24:52.717Z,98758.00
2022-09-03T11:27:27.866Z,98759.13
2022-09-03T11:30:00.359Z,98745.06
2022-09-03T11:32:34.949Z,98744.41
2022-09-03T11:35:02.635Z,98742.25
2022-09-03T11:37:31.200Z,98731.50
2022-09-03T11:40:01.014Z,98732.56
2022-09-03T11:42:31.984Z,98734.13
2022-09-03T11:45:19.083Z,98734.78
2022-09-03T11:47:47.351Z,98741.22
2022-09-03T11:50:21.137Z,98744.69
2022-09-03T11:52:49.399Z,98744.09
2022-09-03T11:55:26.963Z,98736.47
2022-09-03T11:57:55.991Z,98736.09
2022-09-03T12:00:25.126Z,98737.47
2022-09-03T12:02:58.916Z,98718.22
2022-09-03T12:05:32.820Z,98715.56
2022-09-03T12:08:09.236Z,98727.31
2022-09-03T12:10:42.462Z,98720.94
2022-09-03T12:13:29.244Z,98717.72
2022-09-03T12:16:08.462Z,98708.44
2022-09-03T12:18:37.099Z,98717.03
2022-09-03T12:21:05.937Z,98716.13
2022-09-03T12:23:35.401Z,98713.06
2022-09-03T12:26:05.176Z,98713.56
2022-09-03T12:28:36.243Z,98712.53
2022-09-03T12:31:08.333Z,98711.22
2022-09-03T12:33:41.897Z,98712.31
2022-09-03T12:36:10.524Z,98721.22
2022-09-03T12:39:07.708Z,98711.06
2022-09-03T12:41:28.243Z,98710.28
2022-09-03T12:43:58.268Z,98714.53
2022-09-03T12:46:33.589Z,98721.09
2022-09-03T12:51:56.899Z,98720.09
2022-09-03T12:54:27.010Z,98719.31
2022-09-03T12:56:57.277Z,98725.38
2022-09-03T12:59:28.386Z,98718.78
2022-09-03T13:01:57.418Z,98708.19
2022-09-03T13:04:26.903Z,98713.66
2022-09-03T13:06:58.052Z,98713.25
2022-09-03T13:09:29.919Z,98719.41
2022-09-03T13:11:59.164Z,98731.25
2022-09-03T13:14:28.400Z,98732.34
2022-09-03T13:17:10.850Z,98728.00
2022-09-03T13:19:44.938Z,98727.66
2022-09-03T13:22:17.205Z,98724.06
2022-09-03T13:24:54.937Z,98726.28
2022-09-03T13:27:26.439Z,98719.00
2022-09-03T13:30:03.251Z,98715.44
2022-09-03T13:32:37.083Z,98717.34
2022-09-03T13:35:08.266Z,98714.81
2022-09-03T13:37:39.791Z,98708.53
2022-09-03T13:40:16.169Z,98708.88
2022-09-03T13:42:46.714Z,98705.91
2022-09-03T13:45:24.838Z,98709.03
2022-09-03T13:48:14.809Z,98712.81
2022-09-03T13:50:45.019Z,98705.41
2022-09-03T13:53:17.285Z,98709.78
2022-09-03T13:55:47.446Z,98711.59
2022-09-03T13:58:20.983Z,98712.88
2022-09-03T14:00:54.979Z,98709.19
2022-09-03T14:03:26.767Z,98717.03
2022-09-03T14:06:03.500Z,98705.88
2022-09-03T14:08:38.850Z,98702.47
2022-09-03T14:11:14.394Z,98712.06
2022-09-03T14:13:48.432Z,98708.22
2022-09-03T14:16:21.551Z,98701.91
2022-09-03T14:18:53.571Z,98702.31
2022-09-03T14:21:23.770Z,98708.84
2022-09-03T14:23:56.054Z,98711.81
2022-09-03T14:26:38.539Z,98706.34
2022-09-03T14:29:15.693Z,98701.44
2022-09-03T14:31:57.546Z,98703.38
2022-09-03T14:34:31.666Z,98705.25
2022-09-03T14:37:04.685Z,98703.97
2022-09-03T14:39:34.549Z,98700.84
2022-09-03T14:42:20.173Z,98697.38
2022-09-03T14:44:59.558Z,98703.34
2022-09-03T14:47:36.082Z,98698.94
2022-09-03T14:50:16.039Z,98697.72
2022-09-03T14:53:03.858Z,98691.66
2022-09-03T14:55:39.963Z,98690.53
2022-09-03T14:58:19.918Z,98682.41
2022-09-03T15:00:53.390Z,98683.00
2022-09-03T15:03:41.671Z,98684.97
2022-09-03T15:06:15.899Z,98676.41
2022-09-03T15:08:51.250Z,98684.72
2022-09-03T15:11:22.767Z,98681.44
2022-09-03T15:13:53.592Z,98684.06
2022-09-03T15:16:30.008Z,98687.66
2022-09-03T15:19:06.945Z,98688.25
2022-09-03T15:21:44.073Z,98686.31
2022-09-03T15:24:18.286Z,98691.22
2022-09-03T15:26:55.116Z,98692.19
2022-09-03T15:29:30.910Z,98703.06
2022-09-03T15:32:03.633Z,98695.47
2022-09-03T15:34:46.235Z,98699.28
2022-09-03T15:37:18.637Z,98695.41
2022-09-03T15:39:47.532Z,98692.25
2022-09-03T15:42:19.503Z,98698.81
2022-09-03T15:44:49.652Z,98698.06
2022-09-03T15:47:43.122Z,98704.56
2022-09-03T15:50:27.463Z,98703.44
2022-09-03T15:53:00.837Z,98703.56
2022-09-03T15:55:33.100Z,98715.56
2022-09-03T15:58:09.767Z,98710.88
2022-09-03T16:00:50.145Z,98711.34
2022-09-03T16:03:24.128Z,98705.78
2022-09-03T16:05:55.352Z,98714.81
2022-09-03T16:08:28.164Z,98715.13
2022-09-03T16:11:01.749Z,98711.91
2022-09-03T16:13:36.838Z,98718.09
2022-09-03T16:16:06.552Z,98714.94
2022-09-03T16:18:38.277Z,98715.34
2022-09-03T16:21:09.593Z,98719.53
2022-09-03T16:23:43.001Z,98716.72
2022-09-03T16:26:14.374Z,98732.56
2022-09-03T16:28:46.646Z,98725.50
2022-09-03T16:31:19.220Z,98738.63
2022-09-03T16:33:52.275Z,98731.13
2022-09-03T16:36:26.855Z,98731.25
2022-09-03T16:39:00.937Z,98727.13
2022-09-03T16:41:30.554Z,98729.81
2022-09-03T16:44:06.050Z,98734.91
2022-09-03T16:46:37.273Z,98741.50
2022-09-03T16:49:11.577Z,98742.81
2022-09-03T16:51:44.368Z,98746.66
2022-09-03T16:54:21.483Z,98751.06
2022-09-03T16:56:59.979Z,98749.56
2022-09-03T16:59:47.600Z,98760.16
2022-09-03T17:02:40.478Z,98757.56
2022-09-03T17:05:16.626Z,98766.88
2022-09-03T17:07:54.371Z,98766.88
2022-09-03T17:10:28.635Z,98766.88
2022-09-03T17:13:05.293Z,98780.84
2022-09-03T17:15:37.060Z,98764.53
2022-09-03T17:18:11.019Z,98763.72
2022-09-03T17:20:51.899Z,98768.69
2022-09-03T17:23:33.150Z,98774.91
2022-09-03T17:26:07.224Z,98774.88
2022-09-03T17:28:44.698Z,98787.03
2022-09-03T17:31:17.060Z,98784.72
2022-09-03T17:33:56.478Z,98789.38
2022-09-03T17:36:27.378Z,98796.88
2022-09-03T17:39:16.319Z,98793.78
2022-09-03T17:41:47.706Z,98801.78
2022-09-03T17:44:20.882Z,98798.16
2022-09-03T17:46:50.494Z,98800.38
2022-09-03T17:49:22.691Z,98811.06
2022-09-03T17:51:52.629Z,98807.59
2022-09-03T17:54:25.871Z,98812.22
2022-09-03T17:56:59.824Z,98809.84
2022-09-03T17:59:34.305Z,98826.03
2022-09-03T18:03:13.553Z,98821.50
2022-09-03T18:05:46.902Z,98823.97
2022-09-03T18:08:18.491Z,98822.72
2022-09-03T18:10:50.433Z,98822.38
2022-09-03T18:13:26.093Z,98826.28
2022-09-03T18:15:57.162Z,98830.13
2022-09-03T18:18:28.514Z,98830.50
2022-09-03T18:21:24.472Z,98840.50
2022-09-03T18:24:15.982Z,98849.44
2022-09-03T18:34:03.839Z,98856.03
2022-09-03T18:36:50.086Z,98852.84
2022-09-03T18:39:47.224Z,98854.00
2022-09-03T18:42:41.415Z,98855.19
2022-09-03T18:46:05.519Z,98851.16
2022-09-03T18:48:50.227Z,98854.88
2022-09-03T18:51:45.476Z,98862.91
2022-09-03T18:55:07.406Z,98863.88
2022-09-03T18:58:06.008Z,98873.00
2022-09-03T19:00:59.638Z,98875.19
2022-09-03T19:03:58.150Z,98877.03
2022-09-03T19:06:56.623Z,98884.25
2022-09-03T19:10:02.319Z,98892.53
2022-09-03T19:13:00.348Z,98890.50
2022-09-03T19:15:51.102Z,98883.53
2022-09-03T19:18:55.733Z,98890.34
2022-09-03T19:21:50.707Z,98901.91
2022-09-03T19:24:41.887Z,98904.25
2022-09-03T19:27:55.300Z,98904.00
2022-09-03T19:30:51.710Z,98917.06
2022-09-03T19:33:45.249Z,98911.47
2022-09-03T19:36:38.059Z,98912.84
2022-09-03T19:39:50.175Z,98914.69
2022-09-03T19:42:45.768Z,98926.09
2022-09-03T19:45:39.798Z,98920.16
2022-09-03T19:48:36.487Z,98920.16
2022-09-03T19:51:29.066Z,98924.53
2022-09-03T19:54:18.910Z,98928.47
2022-09-03T19:57:07.091Z,98927.91
2022-09-03T19:59:57.650Z,98934.53
2022-09-03T20:02:43.054Z,98929.38
2022-09-03T20:05:32.475Z,98932.09
2022-09-03T20:08:18.476Z,98936.53
2022-09-03T20:10:50.418Z,98931.38
2022-09-03T20:13:21.000Z,98934.50
2022-09-03T20:15:52.174Z,98931.47
2022-09-03T20:18:30.452Z,98934.06
2022-09-03T20:21:07.943Z,98933.78
2022-09-03T20:23:46.030Z,98935.13
2022-09-03T20:26:24.972Z,98944.38
2022-09-03T20:29:11.672Z,98943.63
2022-09-03T20:31:49.186Z,98948.50
2022-09-03T20:34:28.955Z,98952.69
2022-09-03T20:37:05.634Z,98950.56
2022-09-03T20:39:43.229Z,98954.72
2022-09-03T20:42:29.577Z,98956.03
2022-09-03T20:45:09.032Z,98957.72
2022-09-03T20:48:00.319Z,98960.84
2022-09-03T20:50:49.455Z,98952.94
2022-09-03T20:53:39.206Z,98952.94
2022-09-03T20:56:15.039Z,98961.13
2022-09-03T20:58:49.241Z,98959.41
2022-09-03T21:01:24.204Z,98965.75
2022-09-03T21:04:04.313Z,98963.88
2022-09-03T21:06:42.577Z,98962.66
2022-09-03T21:09:21.871Z,98967.47
2022-09-03T21:11:59.122Z,98967.13
2022-09-03T21:14:35.301Z,98970.09
2022-09-03T21:17:25.146Z,98968.00
2022-09-03T21:20:04.827Z,98963.91
2022-09-03T21:22:42.619Z,98973.44
2022-09-03T21:25:15.866Z,98974.09
2022-09-03T21:27:48.279Z,98974.53
2022-09-03T21:30:18.927Z,98979.03
2022-09-03T21:32:53.428Z,98979.63
2022-09-03T21:35:27.468Z,98987.19
2022-09-03T21:38:00.484Z,98987.25
2022-09-03T21:40:32.414Z,98995.16
2022-09-03T21:43:10.675Z,98994.88
2022-09-03T21:45:45.981Z,98993.78
2022-09-03T21:48:21.202Z,98993.84
2022-09-03T21:50:55.083Z,99003.00
2022-09-03T21:53:29.814Z,99006.75
2022-09-03T21:56:22.739Z,99013.38
2022-09-03T21:59:08.278Z,99013.66
2022-09-03T22:01:49.983Z,99009.75
2022-09-03T22:04:21.716Z,99011.31
2022-09-03T22:07:01.118Z,99007.81
2022-09-03T22:09:35.484Z,99008.28
2022-09-03T22:12:08.919Z,99015.66
2022-09-03T22:14:44.575Z,99012.81
2022-09-03T22:17:18.372Z,99018.00
2022-09-03T22:19:47.597Z,99011.31
2022-09-03T22:22:22.661Z,99008.59
2022-09-03T22:25:02.043Z,99016.41
2022-09-03T22:27:37.059Z,99007.88
2022-09-03T22:30:11.293Z,99011.91
2022-09-03T22:32:51.080Z,99011.84
2022-09-03T22:35:56.363Z,99008.16
2022-09-03T22:38:40.322Z,99016.78
2022-09-03T22:41:21.083Z,99011.47
2022-09-03T22:43:54.153Z,99007.59
2022-09-03T22:46:24.456Z,99004.44
2022-09-03T22:49:11.722Z,99013.84
2022-09-03T22:51:53.859Z,99008.97
2022-09-03T22:54:35.548Z,99015.06
2022-09-03T22:57:05.573Z,99013.34
2022-09-03T22:59:39.103Z,99027.44
2022-09-03T23:02:13.464Z,99028.84
2022-09-03T23:04:48.776Z,99028.34
2022-09-03T23:07:25.568Z,99040.78
2022-09-03T23:09:58.903Z,99031.16
2022-09-03T23:12:35.838Z,99021.34
2022-09-03T23:15:06.896Z,99023.50
2022-09-03T23:17:40.948Z,99024.25
2022-09-03T23:20:13.401Z,99029.84
2022-09-03T23:22:54.451Z,99024.22
2022-09-03T23:25:26.361Z,99021.50
2022-09-03T23:27:58.554Z,99024.44
2022-09-03T23:30:26.434Z,99031.66
2022-09-03T23:32:57.050Z,99029.59
2022-09-03T23:35:29.917Z,99036.13
2022-09-03T23:38:13.968Z,99032.75
2022-09-03T23:40:46.716Z,99034.94
2022-09-03T23:43:59.272Z,99036.31
2022-09-03T23:46:32.816Z,99048.84
2022-09-03T23:49:28.934Z,99041.88
2022-09-03T23:52:22.121Z,99044.00
2022-09-03T23:54:59.923Z,99050.41
2022-09-03T23:57:39.355Z,99047.72
